Time;durP1;ratioP1;P1;durP2;ratioP2;P2;SDS_P1;SDS_P2;PMS_P1;PMS_P2;Temp;Humidity;BMP_temperature;BMP_pressure;BME280_temperature;BME280_humidity;BME280_pressure;Samples;Min_cycle;Max_cycle;Signal;HPM_P1;HPM_P2
2021/04/27 00:01:59;;;;;;;8.90;8.30;;;24.40;66.00;;;;;;6283525;22;20467;-41
2021/04/27 00:04:25;;;;;;;9.20;8.60;;;24.40;66.00;;;;;;6283565;22;20436;-41
2021/04/27 00:06:52;;;;;;;9.50;9.00;;;24.50;66.10;;;;;;6282684;22;20419;-41
2021/04/27 00:09:20;;;;;;;9.00;8.50;;;24.40;66.10;;;;;;6282189;22;20433;-41
2021/04/27 00:11:46;;;;;;;9.23;8.73;;;24.40;66.00;;;;;;6282087;22;20439;-41
2021/04/27 00:14:13;;;;;;;9.30;8.90;;;24.40;66.00;;;;;;6283300;22;20430;-41
2021/04/27 00:16:39;;;;;;;8.03;7.73;;;24.50;66.10;;;;;;6283736;22;20404;-41
2021/04/27 00:19:08;;;;;;;9.53;9.03;;;24.40;66.00;;;;;;6256274;22;21019;-41
2021/04/27 00:21:34;;;;;;;8.80;8.17;;;24.50;66.20;;;;;;6282505;22;20423;-41
2021/04/27 00:24:01;;;;;;;9.17;8.63;;;24.40;66.10;;;;;;6283070;22;21030;-41
2021/04/27 00:26:28;;;;;;;9.70;9.10;;;24.40;66.00;;;;;;6283123;22;20453;-41
2021/04/27 00:28:54;;;;;;;9.07;8.67;;;24.40;66.10;;;;;;6281297;22;20416;-40
2021/04/27 00:31:21;;;;;;;9.30;8.70;;;24.40;66.00;;;;;;6282739;22;20418;-41
2021/04/27 00:33:47;;;;;;;9.63;9.03;;;24.40;66.10;;;;;;6283130;22;21014;-41
2021/04/27 00:36:14;;;;;;;9.07;8.47;;;24.40;66.00;;;;;;6283567;22;20432;-41
2021/04/27 00:38:40;;;;;;;9.30;8.90;;;24.40;66.10;;;;;;6281661;22;20511;-40
2021/04/27 00:41:09;;;;;;;9.30;8.90;;;24.40;66.00;;;;;;6282638;22;20417;-41
2021/04/27 00:43:37;;;;;;;9.13;8.67;;;24.40;66.80;;;;;;6254939;22;20424;-41
2021/04/27 00:46:03;;;;;;;8.30;7.90;;;24.40;66.10;;;;;;6282167;22;20435;-41
2021/04/27 00:48:30;;;;;;;9.70;9.30;;;24.40;66.10;;;;;;6281372;22;20416;-41
2021/04/27 00:50:58;;;;;;;9.30;8.80;;;24.40;66.00;;;;;;6253099;22;20796;-41
2021/04/27 00:53:24;;;;;;;9.40;8.90;;;24.40;66.00;;;;;;6283019;22;20436;-41
2021/04/27 00:55:51;;;;;;;8.90;8.50;;;24.50;66.10;;;;;;6281565;22;20448;-41
2021/04/27 00:58:18;;;;;;;8.53;8.00;;;24.50;66.20;;;;;;6283092;22;20423;-41
2021/04/27 01:00:46;;;;;;;9.63;9.13;;;24.50;66.10;;;;;;6283216;22;20422;-41
2021/04/27 01:03:12;;;;;;;8.90;8.50;;;24.50;66.20;;;;;;6282337;22;20515;-41
2021/04/27 01:05:40;;;;;;;10.27;9.77;;;24.50;66.20;;;;;;6282577;22;20412;-41
2021/04/27 01:08:11;;;;;;;9.70;9.27;;;24.50;66.20;;;;;;6284356;22;20442;-41
2021/04/27 01:10:49;;;;;;;9.27;8.80;;;24.50;66.20;;;;;;6284971;22;20791;-41
2021/04/27 01:13:22;;;;;;;9.60;9.00;;;24.50;66.20;;;;;;6282680;22;20440;-41
2021/04/27 01:15:51;;;;;;;10.30;9.60;;;24.50;66.20;;;;;;6283272;22;20426;-41
2021/04/27 01:18:20;;;;;;;10.00;9.43;;;24.50;66.20;;;;;;6282255;22;20433;-41
2021/04/27 01:20:49;;;;;;;9.00;8.60;;;24.50;66.20;;;;;;6282678;22;20819;-41
2021/04/27 01:23:39;;;;;;;10.07;9.50;;;24.50;66.20;;;;;;6283455;22;20468;-41
2021/04/27 01:26:13;;;;;;;9.50;9.10;;;24.50;66.20;;;;;;6254340;22;20427;-41
2021/04/27 01:28:46;;;;;;;9.30;8.70;;;24.50;66.20;;;;;;6280460;22;20422;-41
2021/04/27 01:31:13;;;;;;;9.20;8.80;;;24.50;66.20;;;;;;6280264;22;20434;-41
2021/04/27 01:33:41;;;;;;;9.43;9.03;;;24.50;66.10;;;;;;6253706;22;20419;-41
2021/04/27 01:36:08;;;;;;;9.80;9.30;;;24.50;66.10;;;;;;6281426;22;20505;-41
2021/04/27 01:38:43;;;;;;;9.10;8.63;;;24.50;66.10;;;;;;6254669;22;20514;-41
2021/04/27 01:41:10;;;;;;;10.53;9.90;;;24.50;66.20;;;;;;6281565;22;20448;-41
2021/04/27 01:43:40;;;;;;;10.00;9.50;;;24.50;66.20;;;;;;6253210;22;20431;-41
2021/04/27 01:46:08;;;;;;;9.10;8.70;;;24.50;66.20;;;;;;6282145;22;20418;-41
2021/04/27 01:48:37;;;;;;;10.20;9.67;;;24.50;66.20;;;;;;6256010;22;20448;-41
2021/04/27 01:51:08;;;;;;;9.03;8.63;;;24.50;66.20;;;;;;6281773;22;20458;-41
2021/04/27 01:53:48;;;;;;;9.60;9.10;;;24.50;66.20;;;;;;6283645;22;20650;-41
2021/04/27 01:56:15;;;;;;;8.93;8.50;;;24.50;66.20;;;;;;6254642;22;20445;-41
2021/04/27 01:58:42;;;;;;;9.17;8.77;;;24.50;66.20;;;;;;6282019;22;20412;-41
2021/04/27 02:01:10;;;;;;;8.67;8.27;;;24.50;66.20;;;;;;6253600;22;20513;-41
2021/04/27 02:03:41;;;;;;;8.80;8.40;;;24.50;66.20;;;;;;6281853;22;20525;-41
2021/04/27 02:06:34;;;;;;;9.67;9.27;;;24.50;66.30;;;;;;6254136;22;20437;-41
2021/04/27 02:09:06;;;;;;;9.97;9.53;;;24.60;66.30;;;;;;6254451;22;20803;-41
2021/04/27 02:11:37;;;;;;;10.00;9.50;;;24.50;66.20;;;;;;6281978;22;20462;-41
2021/04/27 02:14:05;;;;;;;9.40;9.00;;;24.50;66.50;;;;;;6281337;22;20503;-41
2021/04/27 02:16:38;;;;;;;9.63;9.23;;;24.50;66.20;;;;;;6280580;22;20847;-41
2021/04/27 02:19:06;;;;;;;9.43;9.03;;;24.50;66.30;;;;;;6281660;22;20431;-41
2021/04/27 02:21:39;;;;;;;8.63;8.30;;;24.50;66.30;;;;;;6254412;22;20405;-41
2021/04/27 02:24:26;;;;;;;8.80;8.40;;;24.50;66.20;;;;;;6254263;22;20922;-41
2021/04/27 02:26:56;;;;;;;9.30;8.80;;;24.60;66.30;;;;;;6281478;22;20879;-41
2021/04/27 02:29:29;;;;;;;8.60;8.20;;;24.50;66.20;;;;;;6253948;22;20411;-41
2021/04/27 02:31:58;;;;;;;9.43;9.03;;;24.50;66.30;;;;;;6254606;22;20499;-41
2021/04/27 02:34:28;;;;;;;9.03;8.60;;;24.50;66.20;;;;;;6281519;22;20429;-41
2021/04/27 02:36:56;;;;;;;9.17;8.77;;;24.50;66.20;;;;;;6253494;22;20533;-41
2021/04/27 02:39:41;;;;;;;9.37;8.97;;;24.60;66.40;;;;;;6281124;22;20419;-41
2021/04/27 02:42:08;;;;;;;9.40;8.80;;;24.50;66.20;;;;;;6281097;22;20425;-41
2021/04/27 02:44:55;;;;;;;9.60;9.10;;;24.50;66.20;;;;;;6281657;22;20455;-41
2021/04/27 02:47:46;;;;;;;9.00;8.60;;;24.50;66.20;;;;;;6282780;22;20449;-41
2021/04/27 02:50:15;;;;;;;9.20;8.80;;;24.50;66.30;;;;;;6282165;22;20475;-41
2021/04/27 02:52:42;;;;;;;9.00;8.60;;;24.50;66.30;;;;;;6253859;22;20524;-41
2021/04/27 02:55:12;;;;;;;9.47;8.97;;;24.50;66.30;;;;;;6281613;22;20433;-41
2021/04/27 02:57:39;;;;;;;9.37;8.97;;;24.60;66.30;;;;;;6281584;22;20415;-41
2021/04/27 03:00:08;;;;;;;9.40;9.00;;;24.60;66.30;;;;;;6253428;22;20440;-41
2021/04/27 03:02:41;;;;;;;9.83;9.33;;;24.60;66.30;;;;;;6254230;22;20651;-41
2021/04/27 03:05:11;;;;;;;9.87;9.37;;;24.60;66.30;;;;;;6254495;22;21102;-41
2021/04/27 03:07:38;;;;;;;9.13;8.73;;;24.60;66.30;;;;;;6282259;22;20412;-41
2021/04/27 03:10:06;;;;;;;9.73;9.33;;;24.60;66.40;;;;;;6282148;22;20441;-41
2021/04/27 03:12:33;;;;;;;10.17;9.57;;;24.60;66.40;;;;;;6282102;22;20584;-41
2021/04/27 03:15:01;;;;;;;9.80;9.23;;;24.60;66.30;;;;;;6281275;22;20434;-41
2021/04/27 03:17:37;;;;;;;9.13;8.73;;;24.60;66.30;;;;;;6254472;22;20489;-41
2021/04/27 03:20:07;;;;;;;9.70;9.30;;;24.60;66.40;;;;;;6256962;22;20419;-41
2021/04/27 03:22:39;;;;;;;9.50;9.10;;;24.60;66.40;;;;;;6255932;22;20781;-41
2021/04/27 03:25:08;;;;;;;9.90;9.40;;;24.60;66.40;;;;;;6256584;22;20435;-41
2021/04/27 03:27:36;;;;;;;10.37;9.77;;;24.60;66.40;;;;;;6256342;22;20433;-41
2021/04/27 03:30:15;;;;;;;10.20;9.70;;;24.60;66.40;;;;;;6283012;22;20740;-41
2021/04/27 03:32:44;;;;;;;9.97;9.40;;;24.60;66.40;;;;;;6253695;22;20436;-41
2021/04/27 03:35:13;;;;;;;10.23;9.73;;;24.60;66.30;;;;;;6282431;22;20464;-41
2021/04/27 03:37:41;;;;;;;10.27;9.77;;;24.60;66.30;;;;;;6282445;22;20420;-41
2021/04/27 03:40:11;;;;;;;9.83;9.43;;;24.60;66.30;;;;;;6283080;22;20777;-41
2021/04/27 03:42:38;;;;;;;9.40;8.80;;;24.60;66.20;;;;;;6282730;22;20953;-41
2021/04/27 03:45:06;;;;;;;9.57;9.17;;;24.60;66.30;;;;;;6255447;22;20423;-41
2021/04/27 03:47:33;;;;;;;9.93;9.53;;;24.70;66.30;;;;;;6279523;22;20434;-41
2021/04/27 03:50:00;;;;;;;10.90;10.40;;;24.70;66.40;;;;;;6254772;22;20413;-41
2021/04/27 03:52:26;;;;;;;10.10;9.70;;;24.70;66.30;;;;;;6254979;22;20449;-41
2021/04/27 03:54:53;;;;;;;10.47;10.07;;;24.70;66.30;;;;;;6281589;22;20422;-41
2021/04/27 03:57:21;;;;;;;10.43;10.00;;;24.70;66.30;;;;;;6254093;22;20408;-41
2021/04/27 03:59:56;;;;;;;10.80;10.30;;;24.70;66.30;;;;;;6249749;22;20448;-41
2021/04/27 04:02:23;;;;;;;10.43;10.03;;;24.70;66.30;;;;;;6280714;22;20617;-41
2021/04/27 04:04:49;;;;;;;11.10;10.60;;;24.70;66.20;;;;;;6279128;22;20446;-41
2021/04/27 04:07:19;;;;;;;10.67;10.20;;;24.80;66.30;;;;;;6249318;22;20555;-41
2021/04/27 04:10:06;;;;;;;11.47;10.87;;;24.80;66.20;;;;;;6252739;22;20695;-41
2021/04/27 04:12:35;;;;;;;10.53;10.13;;;24.80;66.20;;;;;;6252649;22;20446;-42
2021/04/27 04:15:03;;;;;;;10.43;10.03;;;24.80;66.20;;;;;;6252504;22;20752;-42
2021/04/27 04:17:32;;;;;;;10.90;10.30;;;24.80;66.10;;;;;;6277799;22;20602;-42
2021/04/27 04:19:59;;;;;;;10.97;10.47;;;24.80;66.10;;;;;;6250614;22;20665;-42
2021/04/27 04:22:26;;;;;;;10.27;9.87;;;24.80;66.10;;;;;;6278506;22;20416;-40
2021/04/27 04:25:01;;;;;;;10.63;10.13;;;24.80;66.00;;;;;;6244145;23;20453;-41
2021/04/27 04:27:29;;;;;;;10.97;10.37;;;24.90;66.10;;;;;;6246164;22;20428;-41
2021/04/27 04:30:10;;;;;;;10.33;9.93;;;24.90;66.10;;;;;;6244883;22;20490;-41
2021/04/27 04:32:36;;;;;;;10.00;9.60;;;24.90;66.00;;;;;;6245047;22;20478;-41
2021/04/27 04:35:23;;;;;;;10.60;10.10;;;24.90;66.00;;;;;;6245256;22;20443;-41
2021/04/27 04:38:10;;;;;;;10.70;10.20;;;24.90;66.00;;;;;;6244168;22;20530;-41
2021/04/27 04:41:09;;;;;;;11.70;11.00;;;25.00;66.00;;;;;;6173526;22;20663;-41
2021/04/27 04:43:56;;;;;;;10.80;10.30;;;25.00;65.90;;;;;;6240474;22;20434;-41
2021/04/27 04:46:41;;;;;;;10.83;10.13;;;25.00;65.90;;;;;;6242525;22;20799;-41
2021/04/27 04:49:36;;;;;;;10.87;10.17;;;25.10;65.90;;;;;;6239555;23;20476;-41
2021/04/27 04:52:15;;;;;;;10.23;9.83;;;25.10;65.90;;;;;;6241765;22;20616;-41
2021/04/27 04:55:05;;;;;;;10.67;10.17;;;25.10;65.80;;;;;;6240698;23;20901;-41
2021/04/27 04:57:50;;;;;;;10.60;10.10;;;25.10;65.80;;;;;;6239495;23;20433;-41
2021/04/27 05:00:22;;;;;;;10.53;10.03;;;25.10;65.80;;;;;;6237480;23;20448;-42
2021/04/27 05:03:15;;;;;;;10.43;9.93;;;25.10;65.70;;;;;;6232272;23;20858;-42
2021/04/27 05:06:00;;;;;;;10.03;9.63;;;25.10;65.70;;;;;;6237997;22;20786;-42
2021/04/27 05:08:48;;;;;;;10.70;10.20;;;25.10;65.70;;;;;;6238654;22;20600;-42
2021/04/27 05:11:33;;;;;;;9.87;9.40;;;25.10;65.70;;;;;;6236044;22;20517;-41
2021/04/27 05:14:20;;;;;;;10.20;9.70;;;25.20;65.70;;;;;;6233106;22;20523;-41
2021/04/27 05:16:48;;;;;;;10.40;9.90;;;25.20;65.70;;;;;;6233854;22;20843;-41
2021/04/27 05:19:14;;;;;;;10.07;9.67;;;25.20;65.60;;;;;;6232798;22;20435;-41
2021/04/27 05:21:41;;;;;;;9.50;9.00;;;25.20;65.60;;;;;;6233441;23;20434;-42
2021/04/27 05:24:09;;;;;;;10.13;9.63;;;25.20;65.60;;;;;;6238349;22;20447;-42
2021/04/27 05:26:37;;;;;;;10.70;10.10;;;25.20;65.60;;;;;;6234047;22;20588;-41
2021/04/27 05:29:04;;;;;;;9.97;9.57;;;25.20;65.50;;;;;;6264631;22;20532;-41
2021/04/27 05:31:30;;;;;;;9.67;9.30;;;25.30;65.60;;;;;;6262652;22;20424;-41
2021/04/27 05:33:58;;;;;;;10.20;9.70;;;25.30;65.60;;;;;;6264184;22;20431;-41
2021/04/27 05:36:26;;;;;;;10.40;10.00;;;25.30;66.30;;;;;;6269207;22;20782;-41
2021/04/27 05:38:53;;;;;;;10.33;9.83;;;25.30;65.50;;;;;;6268333;22;20453;-41
2021/04/27 05:41:19;;;;;;;10.07;9.67;;;25.30;65.50;;;;;;6260960;22;20413;-41
2021/04/27 05:43:45;;;;;;;9.93;9.53;;;25.30;65.50;;;;;;6264311;22;20718;-41
2021/04/27 05:46:12;;;;;;;10.50;9.93;;;25.30;65.40;;;;;;6236710;22;20448;-41
2021/04/27 05:48:39;;;;;;;9.43;9.03;;;25.30;65.50;;;;;;6262530;22;20861;-41
2021/04/27 05:51:06;;;;;;;11.27;10.67;;;25.30;65.50;;;;;;6261678;22;20420;-41
2021/04/27 05:53:32;;;;;;;10.17;9.67;;;25.30;66.30;;;;;;6264764;22;20424;-41
2021/04/27 05:55:59;;;;;;;10.60;9.90;;;25.30;65.60;;;;;;6263571;22;21289;-41
2021/04/27 05:58:26;;;;;;;10.60;10.00;;;25.30;65.70;;;;;;6260191;22;20415;-41
2021/04/27 06:00:52;;;;;;;10.53;9.63;;;25.30;65.70;;;;;;6261972;22;20567;-41
2021/04/27 06:03:19;;;;;;;11.40;10.70;;;25.20;65.80;;;;;;6262577;22;20430;-41
2021/04/27 06:05:46;;;;;;;10.70;10.00;;;25.20;65.90;;;;;;6256679;22;20412;-42
2021/04/27 06:08:13;;;;;;;10.93;10.10;;;25.30;66.10;;;;;;6260917;22;20827;-42
2021/04/27 06:10:40;;;;;;;12.30;11.10;;;25.20;66.10;;;;;;6260158;22;20483;-41
2021/04/27 06:13:06;;;;;;;11.40;10.50;;;25.20;66.20;;;;;;6260942;22;21202;-41
2021/04/27 06:15:32;;;;;;;14.10;10.73;;;25.20;66.20;;;;;;6256918;22;20425;-41
2021/04/27 06:17:59;;;;;;;15.73;10.73;;;25.20;66.20;;;;;;6257191;22;20415;-41
2021/04/27 06:20:26;;;;;;;12.33;11.13;;;25.20;66.10;;;;;;6258617;22;20696;-41
2021/04/27 06:22:52;;;;;;;10.87;9.70;;;25.20;65.90;;;;;;6257820;22;20414;-41
2021/04/27 06:25:20;;;;;;;12.77;10.10;;;25.20;65.60;;;;;;6249104;22;20467;-41
2021/04/27 06:27:46;;;;;;;11.77;10.53;;;25.20;63.90;;;;;;6250084;22;21096;-41
2021/04/27 06:30:15;;;;;;;10.27;9.57;;;25.20;63.10;;;;;;6249552;22;21120;-41
2021/04/27 06:32:41;;;;;;;10.37;9.70;;;25.20;62.50;;;;;;6254974;22;20435;-41
2021/04/27 06:35:09;;;;;;;10.30;9.70;;;25.20;60.80;;;;;;6257858;22;20913;-41
2021/04/27 06:37:36;;;;;;;11.37;10.57;;;25.20;61.30;;;;;;6258060;22;20529;-41
2021/04/27 06:40:03;;;;;;;11.33;10.43;;;25.30;61.90;;;;;;6255817;22;20432;-41
2021/04/27 06:42:31;;;;;;;11.07;10.30;;;25.20;61.90;;;;;;6255265;22;20422;-41
2021/04/27 06:44:57;;;;;;;11.07;10.07;;;25.20;62.00;;;;;;6253866;22;20439;-41
2021/04/27 06:47:24;;;;;;;11.33;10.37;;;25.20;62.00;;;;;;6255071;22;21317;-41
2021/04/27 06:49:52;;;;;;;10.73;10.00;;;25.20;62.10;;;;;;6256003;22;20420;-41
2021/04/27 06:52:19;;;;;;;9.60;9.00;;;25.20;62.10;;;;;;6254574;22;20862;-41
2021/04/27 06:54:45;;;;;;;8.83;8.43;;;25.20;62.20;;;;;;6255429;22;20420;-41
2021/04/27 06:57:12;;;;;;;18.93;9.80;;;25.20;62.30;;;;;;6222437;22;20431;-41
2021/04/27 06:59:40;;;;;;;9.90;9.20;;;25.20;62.40;;;;;;6253888;22;20427;-41
2021/04/27 07:02:07;;;;;;;10.50;9.70;;;25.20;62.40;;;;;;6253910;22;20447;-41
2021/04/27 07:04:35;;;;;;;9.40;8.80;;;25.20;62.50;;;;;;6255369;22;20438;-41
2021/04/27 07:07:02;;;;;;;10.60;9.83;;;25.20;62.60;;;;;;6252976;22;20463;-41
2021/04/27 07:09:28;;;;;;;9.87;9.17;;;25.20;62.60;;;;;;6254426;22;20436;-41
2021/04/27 07:11:57;;;;;;;8.90;8.20;;;25.20;62.60;;;;;;6254031;22;20434;-41
2021/04/27 07:14:23;;;;;;;10.17;9.37;;;25.20;62.70;;;;;;6252654;22;20436;-41
2021/04/27 07:16:50;;;;;;;9.87;9.17;;;25.20;62.60;;;;;;6255652;22;20428;-41
2021/04/27 07:19:17;;;;;;;9.73;9.00;;;25.20;62.60;;;;;;6255926;22;20507;-41
2021/04/27 07:21:44;;;;;;;10.33;9.53;;;25.20;62.70;;;;;;6251257;22;20462;-41
2021/04/27 07:24:11;;;;;;;9.80;9.10;;;25.20;62.40;;;;;;6253151;22;21142;-41
2021/04/27 07:26:40;;;;;;;10.17;9.47;;;25.10;62.20;;;;;;6255380;22;20419;-41
2021/04/27 07:29:07;;;;;;;9.33;8.63;;;25.00;62.20;;;;;;6248885;22;20671;-41
2021/04/27 07:31:34;;;;;;;9.80;9.10;;;25.00;62.20;;;;;;6243510;22;20467;-41
2021/04/27 07:34:01;;;;;;;9.60;9.07;;;25.00;62.20;;;;;;6250023;22;20416;-41
2021/04/27 07:36:28;;;;;;;9.90;9.17;;;25.00;62.30;;;;;;6253072;22;20435;-41
2021/04/27 07:38:54;;;;;;;9.23;8.70;;;24.90;62.10;;;;;;6253843;22;20480;-41
2021/04/27 07:41:21;;;;;;;9.27;8.77;;;24.90;62.10;;;;;;6251250;22;21439;-41
2021/04/27 07:43:47;;;;;;;9.30;8.70;;;24.90;61.90;;;;;;6256014;22;21143;-41
2021/04/27 07:46:14;;;;;;;9.30;8.70;;;24.90;62.10;;;;;;6255205;22;20416;-41
2021/04/27 07:48:41;;;;;;;9.47;8.60;;;24.90;62.20;;;;;;6227133;22;20414;-41
2021/04/27 07:51:08;;;;;;;9.33;8.80;;;24.90;62.10;;;;;;6248349;22;20681;-41
2021/04/27 07:53:35;;;;;;;9.03;8.40;;;24.80;62.00;;;;;;6252483;22;20410;-41
2021/04/27 07:56:01;;;;;;;9.77;9.10;;;24.80;62.00;;;;;;6253001;22;20421;-41
2021/04/27 07:58:28;;;;;;;8.87;8.37;;;24.80;62.00;;;;;;6225127;22;20438;-41
2021/04/27 08:00:54;;;;;;;8.83;8.43;;;24.90;62.20;;;;;;6252677;22;20421;-41
2021/04/27 08:03:21;;;;;;;9.60;8.70;;;24.80;62.10;;;;;;6245637;22;21131;-41
2021/04/27 08:05:48;;;;;;;9.17;8.50;;;24.80;62.10;;;;;;6247652;22;20783;-41
2021/04/27 08:08:15;;;;;;;8.57;7.90;;;24.80;62.10;;;;;;6254528;22;20439;-41
2021/04/27 08:10:42;;;;;;;9.30;8.60;;;24.80;62.10;;;;;;6258057;22;20414;-41
2021/04/27 08:13:08;;;;;;;9.00;8.53;;;24.80;62.20;;;;;;6254483;22;20428;-41
2021/04/27 08:15:35;;;;;;;8.63;8.13;;;24.80;62.10;;;;;;6253576;22;20743;-41
2021/04/27 08:18:03;;;;;;;9.63;9.13;;;24.80;62.10;;;;;;6254720;22;21095;-41
2021/04/27 08:20:32;;;;;;;9.77;9.07;;;24.80;62.20;;;;;;6252428;22;20740;-41
2021/04/27 08:22:59;;;;;;;9.63;8.90;;;24.70;62.10;;;;;;6252565;22;20399;-41
2021/04/27 08:25:26;;;;;;;9.37;8.60;;;24.80;62.40;;;;;;6252340;22;20901;-41
2021/04/27 08:27:53;;;;;;;9.33;8.83;;;24.70;62.20;;;;;;6254372;22;20410;-41
2021/04/27 08:30:22;;;;;;;8.63;8.10;;;24.80;62.40;;;;;;6255186;22;20538;-41
2021/04/27 08:32:48;;;;;;;8.67;8.17;;;24.80;62.60;;;;;;6252733;22;20425;-41
2021/04/27 08:35:16;;;;;;;9.30;8.80;;;24.80;62.60;;;;;;6251805;22;20529;-41
2021/04/27 08:37:43;;;;;;;9.60;8.90;;;24.80;62.60;;;;;;6255791;22;20416;-41
2021/04/27 08:40:12;;;;;;;8.80;8.40;;;24.80;62.40;;;;;;6252105;22;20456;-41
2021/04/27 08:42:39;;;;;;;9.00;8.50;;;24.80;63.00;;;;;;6250365;22;20417;-41
2021/04/27 08:45:09;;;;;;;8.43;7.93;;;24.80;61.80;;;;;;6252442;22;20429;-41
2021/04/27 08:47:36;;;;;;;9.20;8.60;;;24.80;62.00;;;;;;6255016;22;20415;-41
2021/04/27 08:50:05;;;;;;;8.87;8.17;;;24.80;62.10;;;;;;6256722;22;20416;-41
2021/04/27 08:52:32;;;;;;;8.73;8.33;;;24.80;62.20;;;;;;6251085;22;20420;-41
2021/04/27 08:54:58;;;;;;;9.03;8.40;;;24.80;62.20;;;;;;6250826;22;20447;-41
2021/04/27 08:57:25;;;;;;;8.63;8.13;;;24.80;62.10;;;;;;6218332;22;20414;-41
2021/04/27 08:59:53;;;;;;;9.57;8.80;;;24.80;62.10;;;;;;6245243;22;20733;-41
2021/04/27 09:02:27;;;;;;;8.57;7.80;;;24.80;62.00;;;;;;6254321;22;20408;-40
2021/04/27 09:04:54;;;;;;;9.00;8.50;;;24.80;61.80;;;;;;6255230;22;20479;-41
2021/04/27 09:07:24;;;;;;;9.30;8.70;;;24.90;61.80;;;;;;6254610;22;20511;-41
2021/04/27 09:09:52;;;;;;;9.03;8.47;;;24.90;61.80;;;;;;6253267;22;20431;-41
2021/04/27 09:12:22;;;;;;;9.80;9.20;;;24.90;61.60;;;;;;6253000;22;20424;-41
2021/04/27 09:14:52;;;;;;;9.23;8.83;;;24.90;61.50;;;;;;6249760;22;20409;-41
2021/04/27 09:17:24;;;;;;;8.53;8.17;;;24.90;61.40;;;;;;6252837;22;20505;-41
2021/04/27 09:19:53;;;;;;;9.20;8.33;;;24.90;61.50;;;;;;6254862;22;20550;-41
2021/04/27 09:22:23;;;;;;;9.60;9.10;;;24.90;61.40;;;;;;6254610;22;20435;-41
2021/04/27 09:24:52;;;;;;;9.00;8.43;;;24.90;61.40;;;;;;6248825;22;20430;-41
2021/04/27 09:27:30;;;;;;;9.33;8.80;;;24.90;61.30;;;;;;6253742;22;20516;-41
2021/04/27 09:29:59;;;;;;;8.67;8.17;;;24.90;61.30;;;;;;6254142;22;21213;-41
2021/04/27 09:32:34;;;;;;;9.27;8.67;;;24.80;61.30;;;;;;6254867;22;20517;-41
2021/04/27 09:35:23;;;;;;;8.77;8.33;;;24.80;61.40;;;;;;6255558;22;20406;-41
2021/04/27 09:38:09;;;;;;;8.90;8.40;;;24.80;61.50;;;;;;6252486;22;20410;-41
2021/04/27 09:40:48;;;;;;;8.67;8.00;;;24.80;61.70;;;;;;6252617;22;20410;-41
2021/04/27 09:43:17;;;;;;;9.67;9.17;;;24.80;61.80;;;;;;6250533;22;20431;-41
2021/04/27 09:45:47;;;;;;;9.50;9.10;;;24.80;61.80;;;;;;6253842;22;20520;-41
2021/04/27 09:48:14;;;;;;;9.13;8.63;;;24.80;61.80;;;;;;6252608;22;20823;-41
2021/04/27 09:50:41;;;;;;;8.93;8.43;;;24.70;61.70;;;;;;6254505;22;20866;-41
2021/04/27 09:53:08;;;;;;;8.63;8.13;;;24.80;61.80;;;;;;6250511;22;20427;-41
2021/04/27 09:55:35;;;;;;;8.67;8.20;;;24.80;61.50;;;;;;6256387;22;20435;-41
2021/04/27 09:58:03;;;;;;;8.70;8.17;;;24.80;61.30;;;;;;6253235;22;20422;-41
2021/04/27 10:00:34;;;;;;;9.03;8.43;;;24.80;61.50;;;;;;6249912;22;20481;-41
2021/04/27 10:03:09;;;;;;;8.60;8.10;;;24.80;61.30;;;;;;6251806;22;20492;-41
2021/04/27 10:05:41;;;;;;;8.30;8.00;;;24.80;60.80;;;;;;6257507;22;20406;-41
2021/04/27 10:08:24;;;;;;;9.23;8.73;;;24.80;61.00;;;;;;6252949;22;20538;-41
2021/04/27 10:10:52;;;;;;;8.60;8.10;;;24.80;60.90;;;;;;6253661;22;21056;-41
2021/04/27 10:13:20;;;;;;;8.90;8.40;;;24.80;61.00;;;;;;6253781;22;20515;-41
2021/04/27 10:15:49;;;;;;;8.60;8.20;;;24.80;60.90;;;;;;6252878;22;20428;-41
2021/04/27 10:18:17;;;;;;;8.57;8.03;;;24.80;60.90;;;;;;6253234;22;20420;-41
2021/04/27 10:20:43;;;;;;;8.90;8.40;;;24.80;61.00;;;;;;6254000;22;20410;-41
2021/04/27 10:23:11;;;;;;;8.87;8.47;;;24.80;60.90;;;;;;6254157;22;20525;-41
2021/04/27 10:25:38;;;;;;;9.37;8.90;;;24.80;61.60;;;;;;6254218;22;20447;-41
2021/04/27 10:28:07;;;;;;;8.13;7.70;;;24.70;60.30;;;;;;6253961;22;20420;-41
2021/04/27 10:30:38;;;;;;;9.17;8.57;;;24.70;60.60;;;;;;6251487;22;20484;-41
2021/04/27 10:36:09;;;;;;;8.63;8.23;;;24.70;60.60;;;;;;3613751;39;20595;-32
2021/04/27 10:38:48;;;;;;;9.00;8.50;;;24.70;60.60;;;;;;3608417;39;20480;-33
2021/04/27 10:41:17;;;;;;;10.10;9.50;;;24.70;60.60;;;;;;3619496;39;20463;-34
2021/04/27 10:43:52;;;;;;;9.13;8.73;;;24.70;60.60;;;;;;3619459;39;20459;-34
2021/04/27 10:46:47;;;;;;;9.00;8.50;;;24.70;60.40;;;;;;3607509;39;20469;-33
2021/04/27 10:49:36;;;;;;;9.10;8.60;;;24.70;60.60;;;;;;3599960;39;20484;-33
2021/04/27 10:52:06;;;;;;;9.57;8.83;;;24.70;60.60;;;;;;3618984;39;20480;-33
2021/04/27 10:54:35;;;;;;;9.20;8.70;;;24.70;60.60;;;;;;3618812;39;20921;-34
2021/04/27 10:57:24;;;;;;;8.73;8.35;;;24.70;60.70;;;;;;3613579;39;20538;-33
2021/04/27 10:59:56;;;;;;;8.50;8.17;;;24.70;60.80;;;;;;3606634;39;20227;-33
2021/04/27 11:02:26;;;;;;;9.27;8.77;;;24.70;60.60;;;;;;3615583;39;20716;-33
2021/04/27 11:04:58;;;;;;;8.80;8.20;;;24.70;61.20;;;;;;3619889;39;20468;-33
2021/04/27 11:07:37;;;;;;;9.07;8.47;;;24.70;60.50;;;;;;3612463;39;20471;-34
2021/04/27 11:10:32;;;;;;;9.20;8.70;;;24.70;60.50;;;;;;3607607;39;21314;-34
2021/04/27 11:13:08;;;;;;;8.70;8.20;;;24.70;60.60;;;;;;3607362;39;20954;-33
2021/04/27 11:15:38;;;;;;;8.57;8.17;;;24.60;60.10;;;;;;3609809;39;20501;-33
2021/04/27 11:18:10;;;;;;;9.60;9.00;;;24.60;60.20;;;;;;3615865;39;21170;-33
2021/04/27 11:20:53;;;;;;;8.13;7.80;;;24.70;60.50;;;;;;3617920;39;20460;-34
2021/04/27 11:23:43;;;;;;;9.03;8.60;;;24.70;60.70;;;;;;3619334;39;20471;-34
2021/04/27 11:26:53;;;;;;;8.90;8.60;;;24.70;60.90;;;;;;3614093;39;20483;-34
2021/04/27 11:29:25;;;;;;;9.73;9.13;;;24.60;60.90;;;;;;3618958;39;20452;-33
2021/04/27 11:32:17;;;;;;;9.53;8.93;;;24.60;60.90;;;;;;3617981;39;20856;-32
2021/04/27 11:34:57;;;;;;;9.95;9.35;;;24.60;61.10;;;;;;3615205;39;20578;-32
2021/04/27 11:37:27;;;;;;;69.30;50.97;;;24.60;61.00;;;;;;3619825;39;20655;-34
2021/04/27 11:39:56;;;;;;;38.27;30.20;;;24.60;61.10;;;;;;3612274;39;20493;-33
2021/04/27 11:42:26;;;;;;;32.77;29.50;;;24.60;61.30;;;;;;3609197;39;20497;-33
2021/04/27 11:45:00;;;;;;;34.57;27.53;;;24.60;61.40;;;;;;3610185;39;20949;-33
2021/04/27 11:47:38;;;;;;;27.73;24.80;;;24.60;61.40;;;;;;3612750;39;20933;-33
2021/04/27 11:50:08;;;;;;;29.80;25.60;;;24.60;61.40;;;;;;3613567;39;20982;-33
2021/04/27 11:53:00;;;;;;;29.03;25.80;;;24.60;61.40;;;;;;3603396;39;20226;-33
2021/04/27 11:55:31;;;;;;;30.23;25.60;;;24.60;61.60;;;;;;3609651;39;20889;-33
2021/04/27 11:58:01;;;;;;;28.73;23.83;;;24.60;61.60;;;;;;3602028;39;20448;-33
2021/04/27 12:00:31;;;;;;;28.67;24.30;;;24.60;61.40;;;;;;3601702;39;20455;-32
2021/04/27 12:02:58;;;;;;;24.58;22.05;;;24.60;61.50;;;;;;3608224;39;20470;-33
2021/04/27 12:05:25;;;;;;;26.43;23.70;;;24.60;61.50;;;;;;3612410;39;20555;-33
2021/04/27 12:07:51;;;;;;;24.90;22.50;;;24.60;61.50;;;;;;3603373;39;20478;-33
2021/04/27 12:10:18;;;;;;;25.30;21.77;;;24.60;61.30;;;;;;3601269;39;20470;-33
2021/04/27 12:12:49;;;;;;;25.67;22.27;;;24.60;61.20;;;;;;3611517;39;20461;-33
2021/04/27 12:15:15;;;;;;;24.40;21.80;;;24.60;61.20;;;;;;3608535;39;20505;-34
2021/04/27 12:17:42;;;;;;;25.77;20.13;;;24.60;61.10;;;;;;3608794;39;20542;-34
2021/04/27 12:20:14;;;;;;;22.10;19.75;;;24.60;60.80;;;;;;3605217;39;20466;-34
2021/04/27 12:22:44;;;;;;;21.85;19.65;;;24.60;60.70;;;;;;3596031;39;20229;-34
2021/04/27 12:25:24;;;;;;;20.73;18.63;;;24.60;60.80;;;;;;3600900;39;20232;-33
2021/04/27 12:28:00;;;;;;;20.27;18.47;;;24.60;60.90;;;;;;3612146;39;20720;-33
2021/04/27 12:30:31;;;;;;;20.30;18.37;;;24.60;60.90;;;;;;3600582;39;20893;-33
2021/04/27 12:33:05;;;;;;;20.83;18.70;;;24.60;60.90;;;;;;3602039;39;20564;-33
2021/04/27 12:35:35;;;;;;;17.90;16.20;;;24.60;61.00;;;;;;3610633;39;20919;-32
2021/04/27 12:38:06;;;;;;;19.93;18.13;;;24.60;61.60;;;;;;3613050;39;20479;-33
2021/04/27 12:40:37;;;;;;;20.53;18.37;;;24.60;60.90;;;;;;3613584;39;20463;-33
2021/04/27 12:43:08;;;;;;;18.93;16.90;;;24.50;60.90;;;;;;3610059;39;20482;-33
2021/04/27 12:45:45;;;;;;;18.50;16.80;;;24.50;60.80;;;;;;3602312;39;20518;-33
2021/04/27 12:48:19;;;;;;;18.60;16.90;;;24.50;60.80;;;;;;3602418;39;20852;-34
2021/04/27 12:50:51;;;;;;;18.90;17.03;;;24.50;60.80;;;;;;3603052;39;20464;-33
2021/04/27 12:53:33;;;;;;;17.60;16.00;;;24.50;60.80;;;;;;3602364;39;20466;-34
2021/04/27 12:56:09;;;;;;;18.40;16.60;;;24.50;60.70;;;;;;3601110;39;20474;-34
2021/04/27 12:58:44;;;;;;;18.10;16.30;;;24.50;60.60;;;;;;3598519;39;20463;-33
2021/04/27 13:01:18;;;;;;;17.90;16.20;;;24.50;60.60;;;;;;3596046;39;20342;-33
2021/04/27 13:03:47;;;;;;;16.97;15.40;;;24.50;60.60;;;;;;3601112;39;20504;-33